Time;durP1;ratioP1;P1;durP2;ratioP2;P2;SDS_P1;SDS_P2;PMS_P1;PMS_P2;Temp;Humidity;BMP_temperature;BMP_pressure;BME280_temperature;BME280_humidity;BME280_pressure;Samples;Min_cycle;Max_cycle;Signal;HPM_P1;HPM_P2
2020/12/15 00:01:54;;;;;;;1.47;1.37;;;;;;;7.06;89.51;100756.84;5034399;28;20501;-70
2020/12/15 00:04:21;;;;;;;0.50;0.50;;;;;;;7.10;89.02;100759.81;5034550;28;20439;-69
2020/12/15 00:06:47;;;;;;;1.23;1.07;;;;;;;7.10;88.90;100767.09;5034257;28;20443;-69
2020/12/15 00:09:14;;;;;;;0.80;0.50;;;;;;;7.10;89.13;100757.09;5034220;28;20493;-69
2020/12/15 00:11:40;;;;;;;0.70;0.70;;;;;;;7.11;89.47;100757.91;5056939;23;20921;-68
2020/12/15 00:14:06;;;;;;;0.40;0.30;;;;;;;7.09;88.80;100768.97;5034192;28;20809;-67
2020/12/15 00:16:32;;;;;;;1.17;1.10;;;;;;;7.09;88.66;100763.59;5033523;28;20552;-67
2020/12/15 00:18:58;;;;;;;2.13;1.10;;;;;;;7.09;88.48;100760.88;5034571;28;20435;-67
2020/12/15 00:21:28;;;;;;;0.90;0.73;;;;;;;7.05;87.87;100762.50;5033689;28;20521;-66
2020/12/15 00:23:55;;;;;;;1.83;1.50;;;;;;;7.02;88.01;100757.66;5033381;28;20820;-68
2020/12/15 00:26:22;;;;;;;1.83;0.70;;;;;;;6.91;86.76;100753.41;5033893;28;20812;-68
2020/12/15 00:28:48;;;;;;;1.47;0.90;;;;;;;6.94;86.64;100767.09;5033914;28;20444;-66
2020/12/15 00:31:16;;;;;;;1.27;1.03;;;;;;;6.81;85.76;100763.06;5033729;28;20818;-68
2020/12/15 00:33:42;;;;;;;0.73;0.60;;;;;;;6.80;86.62;100753.38;5033860;28;20788;-67
2020/12/15 00:36:08;;;;;;;0.60;0.60;;;;;;;6.74;86.63;100746.41;5033735;28;20482;-68
2020/12/15 00:38:36;;;;;;;0.50;0.50;;;;;;;6.70;87.45;100749.91;5033431;28;20948;-67
2020/12/15 00:41:03;;;;;;;5.13;1.03;;;;;;;6.69;87.54;100754.50;5033322;28;20980;-67
2020/12/15 00:43:29;;;;;;;2.10;0.60;;;;;;;6.73;87.23;100755.56;5033625;28;20442;-67
2020/12/15 00:45:55;;;;;;;0.70;0.47;;;;;;;6.76;87.53;100760.38;5033773;28;20427;-67
2020/12/15 00:48:21;;;;;;;2.33;1.20;;;;;;;6.82;87.63;100766.59;5033364;28;20496;-67
2020/12/15 00:50:47;;;;;;;0.70;0.70;;;;;;;6.75;87.68;100761.47;5033204;28;20968;-68
2020/12/15 00:53:13;;;;;;;1.63;0.90;;;;;;;6.73;88.23;100765.50;5033481;28;20498;-68
2020/12/15 00:55:40;;;;;;;0.50;0.50;;;;;;;6.78;88.10;100763.63;5033385;28;20533;-68
2020/12/15 00:58:07;;;;;;;0.97;0.53;;;;;;;6.83;87.13;100755.56;5033168;28;20443;-67
2020/12/15 01:00:33;;;;;;;2.80;1.00;;;;;;;6.86;87.37;100751.50;5033316;28;20517;-68
2020/12/15 01:02:59;;;;;;;1.47;1.27;;;;;;;6.82;87.48;100750.44;5033070;28;20940;-68
2020/12/15 01:05:27;;;;;;;0.60;0.60;;;;;;;6.82;86.87;100737.78;5033092;28;20465;-68
2020/12/15 01:07:53;;;;;;;0.50;0.50;;;;;;;6.83;86.80;100734.00;5033292;28;20443;-67
2020/12/15 01:10:20;;;;;;;2.50;1.40;;;;;;;6.81;87.10;100738.03;5033023;28;20447;-68
2020/12/15 01:12:47;;;;;;;0.83;0.50;;;;;;;6.83;86.99;100735.91;5033312;28;20478;-67
2020/12/15 01:15:13;;;;;;;1.70;1.00;;;;;;;6.83;86.68;100741.28;5032869;28;21015;-68
2020/12/15 01:17:39;;;;;;;1.17;0.87;;;;;;;6.81;86.25;100755.00;5033198;28;20497;-68
2020/12/15 01:20:05;;;;;;;0.50;0.47;;;;;;;6.81;86.25;100743.41;5032882;28;20497;-67
2020/12/15 01:22:32;;;;;;;0.60;0.60;;;;;;;6.80;86.43;100747.19;5033274;28;20475;-67
2020/12/15 01:24:58;;;;;;;1.10;1.00;;;;;;;6.76;86.06;100741.56;5033163;28;20466;-68
2020/12/15 01:27:24;;;;;;;1.10;1.10;;;;;;;6.73;86.34;100739.41;5033183;28;20479;-68
2020/12/15 01:29:51;;;;;;;0.40;0.33;;;;;;;6.73;86.12;100746.66;5033104;28;20832;-68
2020/12/15 01:32:17;;;;;;;1.80;0.50;;;;;;;6.71;85.91;100746.13;5032703;28;20463;-68
2020/12/15 01:34:43;;;;;;;1.20;0.80;;;;;;;6.73;85.50;100741.28;5032681;28;20998;-67
2020/12/15 01:37:09;;;;;;;2.73;1.57;;;;;;;6.63;85.49;100735.91;5033022;28;20865;-67
2020/12/15 01:39:35;;;;;;;0.80;0.77;;;;;;;6.67;85.99;100735.09;5033102;28;20478;-68
2020/12/15 01:42:02;;;;;;;0.90;0.73;;;;;;;6.66;85.94;100736.19;5032930;28;20512;-68
2020/12/15 01:44:28;;;;;;;0.77;0.73;;;;;;;6.67;86.27;100740.47;5032984;28;20431;-66
2020/12/15 01:46:55;;;;;;;0.90;0.63;;;;;;;6.71;86.65;100727.28;5032923;28;20467;-67
2020/12/15 01:49:21;;;;;;;1.27;0.97;;;;;;;6.69;87.06;100721.41;5032944;28;20489;-67
2020/12/15 01:51:48;;;;;;;1.17;1.10;;;;;;;6.76;87.03;100721.91;5032841;28;20459;-68
2020/12/15 01:54:15;;;;;;;1.33;1.23;;;;;;;6.72;87.16;100718.13;5032854;28;20497;-68
2020/12/15 01:56:41;;;;;;;7.43;1.00;;;;;;;6.71;87.39;100714.66;5032746;28;20530;-67
2020/12/15 01:59:08;;;;;;;0.40;0.33;;;;;;;6.78;87.23;100717.88;5032886;28;20443;-67
2020/12/15 02:01:42;;;;;;;0.83;0.50;;;;;;;6.75;87.23;100707.63;5032764;28;20467;-68
2020/12/15 02:04:10;;;;;;;0.73;0.70;;;;;;;6.79;87.20;100702.53;5032844;28;20915;-67
2020/12/15 02:06:36;;;;;;;0.80;0.70;;;;;;;6.83;87.03;100707.09;5032446;28;20431;-68
2020/12/15 02:09:04;;;;;;;2.30;1.87;;;;;;;6.84;86.78;100710.59;5032455;28;20936;-67
2020/12/15 02:11:31;;;;;;;1.73;1.50;;;;;;;6.82;86.63;100712.75;5036005;28;20478;-67
2020/12/15 02:13:57;;;;;;;0.50;0.47;;;;;;;6.86;86.66;100713.00;5036181;28;20988;-68
2020/12/15 02:16:23;;;;;;;1.17;0.70;;;;;;;6.79;86.79;100703.31;5036323;28;20556;-66
2020/12/15 02:18:49;;;;;;;0.90;0.70;;;;;;;6.75;86.34;100713.03;5036335;28;20488;-67
2020/12/15 02:21:16;;;;;;;0.67;0.67;;;;;;;6.73;86.39;100717.88;5036260;28;20525;-67
2020/12/15 02:23:43;;;;;;;2.70;1.80;;;;;;;6.73;85.00;100720.56;5036234;28;20493;-68
2020/12/15 02:26:10;;;;;;;0.40;0.30;;;;;;;6.61;84.64;100711.97;5035934;28;20993;-68
2020/12/15 02:28:37;;;;;;;2.40;1.30;;;;;;;6.56;84.52;100709.28;5036209;28;20442;-68
2020/12/15 02:31:03;;;;;;;2.30;1.67;;;;;;;6.51;85.06;100707.41;5036084;28;20459;-66
2020/12/15 02:33:30;;;;;;;1.33;1.30;;;;;;;6.50;85.59;100715.75;5035757;28;20451;-67
2020/12/15 02:35:56;;;;;;;0.97;0.87;;;;;;;6.50;86.33;100718.44;5035929;28;20541;-67
2020/12/15 02:38:22;;;;;;;2.00;0.90;;;;;;;6.48;86.47;100713.34;5035964;28;20435;-67
2020/12/15 02:40:50;;;;;;;0.50;0.50;;;;;;;6.36;86.30;100709.28;5035559;28;20494;-66
2020/12/15 02:43:16;;;;;;;1.47;1.03;;;;;;;6.30;87.63;100703.13;5035874;28;20443;-67
2020/12/15 02:45:42;;;;;;;2.60;0.43;;;;;;;6.32;88.33;100704.44;5035818;28;20443;-68
2020/12/15 02:48:09;;;;;;;1.43;1.33;;;;;;;6.37;88.55;100700.16;5035518;28;20497;-66
2020/12/15 02:50:35;;;;;;;2.00;1.17;;;;;;;6.39;88.43;100706.88;5035706;28;20505;-68
2020/12/15 02:53:01;;;;;;;2.10;1.13;;;;;;;6.35;88.60;100711.19;5035503;28;20489;-67
2020/12/15 02:55:28;;;;;;;0.83;0.83;;;;;;;6.42;88.22;100718.97;5035650;28;20548;-68
2020/12/15 02:57:55;;;;;;;8.13;0.83;;;;;;;6.41;88.27;100723.53;5035325;28;21018;-67
2020/12/15 03:00:22;;;;;;;1.07;0.87;;;;;;;6.37;88.06;100727.84;5035467;28;20489;-68
2020/12/15 03:02:48;;;;;;;7.70;1.77;;;;;;;6.34;88.61;100735.69;5035519;28;20483;-67
2020/12/15 03:05:15;;;;;;;0.87;0.83;;;;;;;6.31;88.98;100737.00;5035219;28;20807;-68
2020/12/15 03:07:41;;;;;;;0.60;0.50;;;;;;;6.31;88.71;100724.38;5035491;28;20470;-67
2020/12/15 03:10:09;;;;;;;2.70;0.87;;;;;;;6.33;88.62;100710.66;5035371;28;20435;-67
2020/12/15 03:12:35;;;;;;;0.40;0.30;;;;;;;6.33;88.79;100699.91;5035366;28;20498;-68
2020/12/15 03:15:02;;;;;;;1.53;1.17;;;;;;;6.33;88.73;100699.91;5035351;28;20514;-67
2020/12/15 03:17:29;;;;;;;1.73;0.83;;;;;;;6.33;88.67;100689.16;5034988;28;20501;-67
2020/12/15 03:19:55;;;;;;;0.53;0.50;;;;;;;6.36;88.12;100698.53;5035222;28;20521;-68
2020/12/15 03:22:21;;;;;;;1.43;1.10;;;;;;;6.25;87.40;100698.56;5034676;28;20549;-68
2020/12/15 03:24:47;;;;;;;0.40;0.30;;;;;;;6.27;87.88;100711.72;5035153;28;20465;-67
2020/12/15 03:27:14;;;;;;;0.77;0.70;;;;;;;6.24;87.23;100707.69;5034754;28;20458;-65
2020/12/15 03:29:40;;;;;;;3.07;0.67;;;;;;;6.25;87.43;100720.06;5035047;28;20540;-66
2020/12/15 03:32:07;;;;;;;0.40;0.30;;;;;;;6.22;87.58;100720.59;5034993;28;20481;-67
2020/12/15 03:34:33;;;;;;;0.40;0.30;;;;;;;6.20;87.91;100720.06;5034966;28;20440;-67
2020/12/15 03:36:59;;;;;;;1.10;0.80;;;;;;;6.20;87.80;100722.75;5034856;28;20568;-67
2020/12/15 03:39:25;;;;;;;1.50;0.67;;;;;;;6.15;87.97;100720.03;5034581;28;20443;-67
2020/12/15 03:41:54;;;;;;;2.10;1.60;;;;;;;6.15;88.12;100721.94;5034524;28;20878;-67
2020/12/15 03:44:22;;;;;;;0.67;0.67;;;;;;;6.11;88.39;100718.16;5034850;28;20447;-68
2020/12/15 03:46:48;;;;;;;2.80;1.27;;;;;;;6.14;88.62;100712.25;5034786;28;20443;-66
2020/12/15 03:49:15;;;;;;;2.10;0.70;;;;;;;6.11;89.23;100713.63;5034702;28;20444;-68
2020/12/15 03:51:41;;;;;;;1.47;0.70;;;;;;;6.15;89.55;100728.09;5034571;28;20513;-68
2020/12/15 03:54:07;;;;;;;0.67;0.57;;;;;;;6.21;89.17;100731.63;5034636;28;20489;-68
2020/12/15 03:56:34;;;;;;;2.20;0.77;;;;;;;6.21;88.99;100740.50;5034141;28;21002;-67
2020/12/15 03:59:00;;;;;;;2.47;1.30;;;;;;;6.26;88.30;100742.38;5034507;28;20497;-67
2020/12/15 04:01:26;;;;;;;0.73;0.60;;;;;;;6.26;89.11;100742.38;5034430;28;20581;-68
2020/12/15 04:03:52;;;;;;;1.80;1.03;;;;;;;6.30;88.80;100743.47;5034082;28;20998;-68
2020/12/15 04:06:19;;;;;;;1.23;1.10;;;;;;;6.24;89.05;100739.97;5034352;28;20493;-67
2020/12/15 04:08:45;;;;;;;0.80;0.70;;;;;;;6.20;89.17;100736.22;5034318;28;20488;-68
2020/12/15 04:11:12;;;;;;;0.80;0.80;;;;;;;6.20;89.04;100738.91;5033719;28;20471;-67
2020/12/15 04:13:38;;;;;;;5.70;0.77;;;;;;;6.16;88.98;100735.13;5034154;28;20439;-68
2020/12/15 04:16:04;;;;;;;4.17;3.83;;;;;;;6.14;89.03;100739.16;5034074;28;20524;-67
2020/12/15 04:18:30;;;;;;;1.67;0.70;;;;;;;6.07;89.13;100742.09;5034101;28;20474;-68
2020/12/15 04:20:56;;;;;;;1.07;0.50;;;;;;;6.05;88.72;100741.56;5033995;28;20459;-69
2020/12/15 04:23:26;;;;;;;1.40;1.07;;;;;;;5.96;88.23;100735.09;5033735;28;20443;-71
2020/12/15 04:25:54;;;;;;;0.73;0.73;;;;;;;5.94;88.27;100734.56;5033920;28;20462;-67
2020/12/15 04:28:20;;;;;;;0.47;0.40;;;;;;;5.93;88.93;100730.22;5034016;28;20870;-68
2020/12/15 04:30:47;;;;;;;1.27;1.13;;;;;;;5.85;88.91;100736.13;5033794;28;20463;-68
2020/12/15 04:33:14;;;;;;;1.77;0.87;;;;;;;5.81;88.25;100733.16;5033141;28;20458;-67
2020/12/15 04:35:40;;;;;;;0.83;0.43;;;;;;;5.76;88.01;100733.16;5033688;28;20568;-67
2020/12/15 04:38:06;;;;;;;6.23;2.10;;;;;;;5.72;88.41;100730.19;5033462;28;20479;-66
2020/12/15 04:40:35;;;;;;;1.57;1.47;;;;;;;5.67;88.50;100730.16;5033667;28;20491;-67
2020/12/15 04:43:02;;;;;;;1.17;1.07;;;;;;;5.67;88.56;100727.47;5033573;28;20446;-68
2020/12/15 04:45:28;;;;;;;0.50;0.50;;;;;;;5.61;88.07;100731.19;5033585;28;20971;-67
2020/12/15 04:48:03;;;;;;;1.70;0.97;;;;;;;5.51;88.07;100731.19;5033358;28;20443;-68
2020/12/15 04:50:33;;;;;;;1.70;1.60;;;;;;;5.51;89.27;100736.56;5033541;28;20430;-67
2020/12/15 04:53:06;;;;;;;2.37;1.83;;;;;;;5.46;89.49;100733.84;5033515;28;20447;-67
2020/12/15 04:55:34;;;;;;;1.53;1.43;;;;;;;5.45;89.74;100732.25;5033476;28;20471;-67
2020/12/15 04:58:02;;;;;;;0.40;0.40;;;;;;;5.37;89.62;100730.06;5033469;28;20443;-67
2020/12/15 05:00:28;;;;;;;0.60;0.60;;;;;;;5.36;90.00;100726.56;5033245;28;20928;-67
2020/12/15 05:02:55;;;;;;;1.37;0.83;;;;;;;5.43;90.63;100729.00;5033571;28;20475;-67
2020/12/15 05:05:22;;;;;;;3.23;1.23;;;;;;;5.44;91.30;100734.09;5033281;28;20443;-66
2020/12/15 05:07:49;;;;;;;2.63;2.53;;;;;;;5.42;91.53;100735.44;5033085;28;21018;-67
2020/12/15 05:10:17;;;;;;;1.80;1.53;;;;;;;5.44;91.85;100733.28;5033057;28;20534;-68
2020/12/15 05:12:45;;;;;;;0.77;0.60;;;;;;;5.51;91.40;100731.19;5033041;28;20905;-68
2020/12/15 05:15:13;;;;;;;0.50;0.50;;;;;;;5.47;91.70;100732.78;5033188;28;20470;-66
2020/12/15 05:17:41;;;;;;;0.60;0.60;;;;;;;5.51;91.57;100731.97;5033203;28;20874;-68
2020/12/15 05:20:08;;;;;;;1.43;1.33;;;;;;;5.50;91.58;100730.38;5033216;28;20443;-66
2020/12/15 05:22:39;;;;;;;1.13;0.40;;;;;;;5.54;91.41;100730.66;5033016;28;20524;-68
2020/12/15 05:25:06;;;;;;;1.03;0.77;;;;;;;5.58;91.32;100723.69;5032722;28;20451;-68
2020/12/15 05:27:39;;;;;;;2.80;1.37;;;;;;;5.60;90.92;100716.16;5032735;28;20458;-67
2020/12/15 05:30:11;;;;;;;1.37;0.87;;;;;;;5.61;90.73;100716.97;5033201;28;20489;-66
2020/12/15 05:32:48;;;;;;;4.50;2.43;;;;;;;5.63;90.64;100718.34;5032775;28;20960;-68
2020/12/15 05:35:14;;;;;;;0.50;0.43;;;;;;;5.60;90.73;100720.72;5033102;28;20506;-68
2020/12/15 05:37:44;;;;;;;2.53;1.20;;;;;;;5.55;89.99;100726.91;5033147;28;20489;-68
2020/12/15 05:40:11;;;;;;;2.20;1.60;;;;;;;5.55;89.65;100732.28;5032937;28;20518;-68
2020/12/15 05:42:38;;;;;;;2.53;0.57;;;;;;;5.61;89.52;100730.41;5032697;28;20967;-68
2020/12/15 05:45:05;;;;;;;2.93;1.03;;;;;;;5.54;89.06;100726.09;5034356;28;20478;-67
2020/12/15 05:47:33;;;;;;;1.33;0.60;;;;;;;5.57;89.19;100724.75;5036964;28;20499;-67
2020/12/15 05:50:00;;;;;;;1.37;1.27;;;;;;;5.64;88.64;100722.63;5036513;28;20443;-67
2020/12/15 05:52:27;;;;;;;1.23;1.13;;;;;;;5.64;88.67;100729.88;5036436;28;20903;-66
2020/12/15 05:55:05;;;;;;;11.20;2.30;;;;;;;5.67;89.00;100730.16;5036814;28;20856;-67
2020/12/15 05:57:32;;;;;;;0.57;0.57;;;;;;;5.70;88.46;100731.50;5036464;28;20423;-66
2020/12/15 06:00:07;;;;;;;0.97;0.67;;;;;;;5.64;88.42;100735.25;5036649;28;20447;-67
2020/12/15 06:02:35;;;;;;;1.30;1.20;;;;;;;5.75;89.02;100729.63;5036539;28;20454;-67
2020/12/15 06:05:01;;;;;;;3.37;0.87;;;;;;;5.82;89.27;100730.19;5036314;28;20856;-68
2020/12/15 06:07:28;;;;;;;7.73;3.03;;;;;;;5.87;89.19;100721.34;5036509;28;20447;-68
2020/12/15 06:09:57;;;;;;;3.07;1.27;;;;;;;5.93;88.86;100720.31;5036492;28;20804;-67
2020/12/15 06:12:23;;;;;;;1.07;0.50;;;;;;;5.93;88.92;100706.03;5066716;23;20500;-63
2020/12/15 06:14:49;;;;;;;1.07;0.90;;;;;;;5.95;88.60;100717.34;5058815;28;20454;-63
2020/12/15 06:17:17;;;;;;;1.60;1.03;;;;;;;5.89;89.13;100718.38;5058108;28;20547;-64
2020/12/15 06:19:44;;;;;;;0.40;0.30;;;;;;;5.91;89.14;100705.47;5057025;28;20517;-63
2020/12/15 06:22:11;;;;;;;0.90;0.90;;;;;;;5.94;88.94;100703.09;5056536;28;20520;-64
2020/12/15 06:24:40;;;;;;;0.60;0.60;;;;;;;5.96;88.40;100711.69;5056373;28;20503;-64
2020/12/15 06:27:08;;;;;;;0.50;0.30;;;;;;;6.03;88.56;100711.44;5057044;28;20448;-64
2020/12/15 06:29:36;;;;;;;1.70;1.10;;;;;;;6.08;88.32;100708.75;5056815;28;20448;-64
2020/12/15 06:32:04;;;;;;;2.97;2.77;;;;;;;6.07;88.54;100716.03;5056267;28;21006;-62
2020/12/15 06:34:31;;;;;;;1.50;1.00;;;;;;;6.11;87.96;100715.47;5056993;28;20442;-63
2020/12/15 06:37:00;;;;;;;14.03;2.40;;;;;;;6.07;87.35;100701.78;5057357;28;20567;-63
2020/12/15 06:39:28;;;;;;;0.80;0.77;;;;;;;6.06;86.32;100705.50;5057125;28;20446;-63
2020/12/15 06:42:00;;;;;;;0.60;0.57;;;;;;;5.94;86.74;100702.31;5056639;28;20525;-63
2020/12/15 06:44:33;;;;;;;0.87;0.87;;;;;;;5.89;86.91;100705.75;5056649;28;20814;-63
2020/12/15 06:47:01;;;;;;;2.20;1.27;;;;;;;5.85;87.45;100696.59;5056600;28;20466;-64
2020/12/15 06:49:29;;;;;;;1.80;1.60;;;;;;;5.85;87.11;100693.94;5057414;28;20454;-62
2020/12/15 06:52:01;;;;;;;1.17;1.17;;;;;;;5.90;87.47;100695.81;5057526;28;20462;-64
2020/12/15 06:54:29;;;;;;;0.40;0.30;;;;;;;5.92;87.02;100699.84;5058899;28;20446;-63
2020/12/15 06:57:03;;;;;;;2.67;1.50;;;;;;;5.95;86.82;100691.28;5057632;28;20482;-63
2020/12/15 06:59:35;;;;;;;0.87;0.87;;;;;;;5.92;86.89;100694.47;5058534;28;20438;-63
2020/12/15 07:02:12;;;;;;;2.40;1.60;;;;;;;5.89;86.66;100691.47;5057943;28;20453;-64
2020/12/15 07:04:43;;;;;;;1.43;1.33;;;;;;;5.94;87.06;100691.53;5055702;28;20445;-62
2020/12/15 07:07:11;;;;;;;0.70;0.70;;;;;;;5.92;88.16;100689.09;5055197;28;20446;-63
2020/12/15 07:09:38;;;;;;;2.90;2.07;;;;;;;5.99;88.59;100696.94;5055446;28;20440;-63
2020/12/15 07:12:10;;;;;;;3.20;1.80;;;;;;;6.04;88.14;100689.66;5056681;28;20987;-65
2020/12/15 07:14:36;;;;;;;2.87;1.60;;;;;;;6.05;87.96;100679.72;5057278;28;20481;-64
2020/12/15 07:17:02;;;;;;;3.90;1.73;;;;;;;6.01;87.73;100679.44;5056904;28;20486;-64
2020/12/15 07:19:29;;;;;;;2.53;1.97;;;;;;;6.03;87.55;100679.19;5057550;28;20474;-64
2020/12/15 07:21:55;;;;;;;0.73;0.70;;;;;;;6.05;87.68;100688.56;5056561;28;20516;-65
2020/12/15 07:24:23;;;;;;;0.50;0.47;;;;;;;6.07;87.49;100685.66;5056334;28;20464;-64
2020/12/15 07:26:49;;;;;;;0.77;0.77;;;;;;;6.07;87.76;100681.06;5056436;28;20521;-64
2020/12/15 07:29:20;;;;;;;12.30;1.40;;;;;;;6.13;87.45;100698.00;5056488;28;20450;-64
2020/12/15 07:31:46;;;;;;;0.87;0.67;;;;;;;6.14;87.07;100702.28;5058415;28;20480;-64
2020/12/15 07:34:14;;;;;;;3.67;1.80;;;;;;;6.10;87.53;100700.41;5058437;28;20485;-64
2020/12/15 07:36:42;;;;;;;0.40;0.30;;;;;;;6.11;87.69;100686.72;5059394;28;20490;-64
2020/12/15 07:39:10;;;;;;;1.97;1.80;;;;;;;6.09;86.98;100683.47;5059760;28;20443;-64
2020/12/15 07:41:37;;;;;;;0.40;0.30;;;;;;;6.03;87.10;100677.28;5058781;28;20438;-64
2020/12/15 07:44:07;;;;;;;2.50;1.23;;;;;;;6.11;86.78;100693.97;5058434;28;20446;-64
2020/12/15 07:46:34;;;;;;;1.57;1.03;;;;;;;6.12;86.25;100682.94;5058411;28;20434;-64
2020/12/15 07:49:00;;;;;;;0.70;0.47;;;;;;;6.09;85.08;100691.53;5059116;28;20442;-64
2020/12/15 07:51:27;;;;;;;1.10;0.63;;;;;;;6.14;84.81;100688.84;5057877;28;20445;-64
2020/12/15 07:53:54;;;;;;;1.60;0.77;;;;;;;6.11;85.44;100692.09;5058247;28;20458;-62
2020/12/15 07:56:20;;;;;;;0.50;0.40;;;;;;;6.13;85.65;100697.19;5059341;28;20493;-63
2020/12/15 07:58:50;;;;;;;6.90;2.77;;;;;;;6.15;85.40;100682.38;5057389;28;20459;-63
2020/12/15 08:01:21;;;;;;;4.00;1.07;;;;;;;6.19;85.60;100705.00;5057699;28;20442;-65
2020/12/15 08:03:47;;;;;;;0.73;0.73;;;;;;;6.26;85.87;100705.53;5057492;28;21041;-65
2020/12/15 08:06:14;;;;;;;0.40;0.30;;;;;;;6.33;85.81;100710.66;5057978;28;20447;-65
2020/12/15 08:08:41;;;;;;;1.93;0.90;;;;;;;6.36;85.15;100704.72;5056824;28;20443;-64
2020/12/15 08:11:18;;;;;;;7.07;2.90;;;;;;;6.36;85.53;100703.91;5058336;28;20492;-65
2020/12/15 08:13:46;;;;;;;4.93;1.20;;;;;;;6.39;85.46;100714.16;5057726;28;20474;-64
2020/12/15 08:16:14;;;;;;;1.90;0.73;;;;;;;6.45;85.22;100718.44;5058138;28;21006;-65
2020/12/15 08:18:42;;;;;;;1.10;1.10;;;;;;;6.48;85.45;100699.06;5059166;28;20451;-65
2020/12/15 08:21:13;;;;;;;1.47;0.67;;;;;;;6.54;85.36;100704.16;5058660;28;20865;-65
2020/12/15 08:23:46;;;;;;;2.90;1.23;;;;;;;6.49;86.00;100706.88;5058428;28;20807;-63
2020/12/15 08:26:13;;;;;;;3.90;1.27;;;;;;;6.52;85.71;100708.22;5056829;28;20441;-63
2020/12/15 08:28:40;;;;;;;1.83;1.43;;;;;;;6.47;85.67;100714.41;5055674;28;20446;-63
2020/12/15 08:31:10;;;;;;;1.53;1.43;;;;;;;6.52;85.95;100706.34;5056202;28;20472;-65
2020/12/15 08:33:37;;;;;;;2.57;2.40;;;;;;;6.58;85.64;100696.38;5056851;28;20488;-66
2020/12/15 08:36:05;;;;;;;0.70;0.70;;;;;;;6.66;85.37;100692.31;5057052;28;20482;-65
2020/12/15 08:38:33;;;;;;;2.00;1.70;;;;;;;6.71;85.18;100695.81;5057928;28;20446;-64
2020/12/15 08:41:02;;;;;;;3.73;1.20;;;;;;;6.72;85.15;100694.72;5057048;28;20447;-65
2020/12/15 08:43:28;;;;;;;1.20;1.10;;;;;;;6.80;84.66;100688.78;5054988;28;20465;-63
2020/12/15 08:45:55;;;;;;;1.93;1.33;;;;;;;6.77;84.40;100697.44;5055159;28;20446;-62
2020/12/15 08:48:23;;;;;;;0.80;0.67;;;;;;;6.74;84.14;100699.84;5056051;28;20446;-62
2020/12/15 08:50:51;;;;;;;5.00;2.53;;;;;;;6.83;83.94;100715.16;5057385;28;20496;-62
2020/12/15 08:53:18;;;;;;;4.93;1.10;;;;;;;6.86;83.85;100707.59;5057184;28;20497;-62
2020/12/15 08:55:46;;;;;;;1.60;0.97;;;;;;;6.90;83.32;100709.47;5057757;28;20539;-62
2020/12/15 08:58:12;;;;;;;1.17;0.60;;;;;;;6.95;83.22;100719.44;5058523;28;20442;-62
2020/12/15 09:00:41;;;;;;;1.77;1.67;;;;;;;7.00;82.59;100722.13;5058086;28;20458;-62
2020/12/15 09:03:08;;;;;;;1.20;0.47;;;;;;;7.03;82.89;100708.09;5058766;28;20469;-62
2020/12/15 09:05:46;;;;;;;5.90;0.77;;;;;;;7.02;83.02;100704.59;5057791;28;20466;-62
2020/12/15 09:08:13;;;;;;;1.10;1.00;;;;;;;7.01;83.09;100710.28;5057342;28;20433;-63
2020/12/15 09:10:39;;;;;;;1.93;1.80;;;;;;;7.02;82.89;100703.81;5055114;28;20450;-62
2020/12/15 09:13:05;;;;;;;2.63;2.20;;;;;;;7.07;82.34;100704.59;5056783;28;20532;-62
2020/12/15 09:15:32;;;;;;;1.90;1.70;;;;;;;7.11;82.35;100699.47;5056650;28;20940;-62
2020/12/15 09:17:58;;;;;;;0.50;0.50;;;;;;;7.20;82.26;100700.50;5056199;28;20449;-62
2020/12/15 09:20:26;;;;;;;7.20;3.27;;;;;;;7.18;82.43;100700.00;5057638;28;20446;-62
2020/12/15 09:22:52;;;;;;;6.53;1.90;;;;;;;7.32;81.75;100702.88;5057889;28;20461;-63
2020/12/15 09:25:20;;;;;;;1.90;1.73;;;;;;;7.31;81.86;100699.41;5057152;28;20476;-62
2020/12/15 09:27:47;;;;;;;0.80;0.67;;;;;;;7.41;81.56;100693.16;5058067;28;20439;-63
2020/12/15 09:30:14;;;;;;;11.67;2.00;;;;;;;7.45;80.82;100690.72;5058089;28;20789;-62
2020/12/15 09:32:42;;;;;;;1.03;0.93;;;;;;;7.48;80.71;100687.44;5056630;28;20489;-62
2020/12/15 09:35:09;;;;;;;2.50;1.00;;;;;;;7.52;81.51;100683.09;5056218;28;20537;-62
2020/12/15 09:37:35;;;;;;;6.90;2.13;;;;;;;7.56;80.67;100678.78;5056080;28;20474;-62
2020/12/15 09:40:04;;;;;;;2.00;1.90;;;;;;;7.61;80.50;100673.34;5058543;28;20500;-63
2020/12/15 09:42:32;;;;;;;1.80;1.70;;;;;;;7.66;79.79;100678.72;5058306;28;20880;-63
2020/12/15 09:44:58;;;;;;;2.47;1.33;;;;;;;7.70;79.22;100666.31;5057954;28;20442;-62
2020/12/15 09:47:25;;;;;;;3.30;1.80;;;;;;;7.71;79.25;100670.59;5057025;28;20438;-62
2020/12/15 09:49:51;;;;;;;2.93;0.87;;;;;;;7.67;79.20;100674.94;5057702;28;20438;-62
2020/12/15 09:52:17;;;;;;;1.37;1.27;;;;;;;7.65;79.53;100674.41;5056951;28;21014;-63
2020/12/15 09:54:43;;;;;;;0.60;0.47;;;;;;;7.69;79.08;100677.34;5056869;28;20940;-62
2020/12/15 09:57:09;;;;;;;1.03;1.03;;;;;;;7.62;79.26;100674.97;5056452;28;20486;-62
2020/12/15 09:59:36;;;;;;;1.10;1.00;;;;;;;7.69;79.55;100688.94;5056557;28;20446;-62
2020/12/15 10:02:03;;;;;;;1.60;1.50;;;;;;;7.79;79.35;100682.66;5056310;28;21006;-62
2020/12/15 10:04:30;;;;;;;1.47;0.87;;;;;;;7.88;78.63;100683.72;5056444;28;20464;-62
2020/12/15 10:06:56;;;;;;;1.13;1.03;;;;;;;7.89;78.30;100687.22;5056058;28;20446;-62
2020/12/15 10:09:22;;;;;;;2.70;2.50;;;;;;;7.84;77.99;100674.56;5056274;28;20811;-62
2020/12/15 10:11:49;;;;;;;3.40;1.77;;;;;;;7.82;78.21;100677.53;5055994;28;20446;-63
2020/12/15 10:14:15;;;;;;;1.17;1.07;;;;;;;7.89;78.09;100681.81;5056833;28;20431;-62
2020/12/15 10:16:42;;;;;;;3.70;3.07;;;;;;;7.91;78.33;100676.94;5055422;28;20478;-64
2020/12/15 10:19:08;;;;;;;1.50;0.93;;;;;;;7.90;78.35;100681.53;5053513;28;20442;-65
2020/12/15 10:21:35;;;;;;;2.20;0.97;;;;;;;7.90;78.26;100675.34;5054434;28;20446;-64
2020/12/15 10:24:02;;;;;;;1.80;1.47;;;;;;;7.88;77.68;100667.53;5054565;28;20468;-65
2020/12/15 10:26:28;;;;;;;4.10;2.80;;;;;;;7.96;77.35;100668.81;5054499;28;20442;-64
2020/12/15 10:28:54;;;;;;;2.13;2.03;;;;;;;7.99;77.26;100665.56;5054423;28;20864;-64
2020/12/15 10:31:21;;;;;;;2.40;0.50;;;;;;;8.01;77.10;100668.75;5056796;28;20521;-64
2020/12/15 10:33:49;;;;;;;0.73;0.73;;;;;;;7.97;77.09;100663.16;5058283;28;21088;-65
2020/12/15 10:36:16;;;;;;;1.57;0.77;;;;;;;7.98;77.05;100664.75;5058131;28;20478;-64
2020/12/15 10:38:43;;;;;;;1.27;1.17;;;;;;;7.97;76.65;100656.91;5058506;28;20446;-64
2020/12/15 10:41:09;;;;;;;1.53;0.77;;;;;;;7.95;76.26;100659.13;5058004;28;20442;-64
2020/12/15 10:43:35;;;;;;;3.00;1.60;;;;;;;7.99;76.76;100654.75;5057250;28;20469;-67
2020/12/15 10:46:02;;;;;;;1.47;1.37;;;;;;;8.07;76.82;100656.88;5057128;28;20445;-66
2020/12/15 10:48:29;;;;;;;0.90;0.60;;;;;;;8.08;76.64;100653.06;5057003;28;20803;-67
2020/12/15 10:50:56;;;;;;;0.40;0.30;;;;;;;8.10;76.29;100656.28;5056907;28;20484;-67
2020/12/15 10:53:22;;;;;;;1.50;1.40;;;;;;;8.11;76.43;100649.81;5056519;28;20501;-66
2020/12/15 10:55:49;;;;;;;1.73;1.53;;;;;;;8.10;75.93;100650.88;5056153;28;20481;-66
2020/12/15 10:58:15;;;;;;;0.97;0.97;;;;;;;8.07;75.36;100656.88;5056075;28;20510;-67
2020/12/15 11:00:41;;;;;;;2.53;0.70;;;;;;;8.16;75.84;100663.25;5056389;28;20469;-67
2020/12/15 11:03:08;;;;;;;1.80;0.97;;;;;;;8.30;75.70;100675.00;5055730;28;20490;-67
2020/12/15 11:05:34;;;;;;;2.07;1.50;;;;;;;8.31;75.15;100673.91;5055967;28;20481;-67
2020/12/15 11:08:01;;;;;;;4.93;1.50;;;;;;;8.34;74.93;100667.94;5056235;28;20438;-67
2020/12/15 11:10:27;;;;;;;1.03;1.03;;;;;;;8.35;74.73;100677.66;5056589;28;20426;-67
2020/12/15 11:12:54;;;;;;;2.33;0.83;;;;;;;8.35;74.40;100674.97;5056250;28;20496;-67
2020/12/15 11:15:20;;;;;;;1.87;1.77;;;;;;;8.32;74.64;100674.72;5056436;28;20438;-67
2020/12/15 11:17:46;;;;;;;1.13;1.03;;;;;;;8.41;74.49;100677.63;5056868;28;20510;-67
2020/12/15 11:20:12;;;;;;;2.13;1.20;;;;;;;8.45;74.56;100667.88;5056339;28;20944;-67
2020/12/15 11:22:40;;;;;;;2.30;0.93;;;;;;;8.38;75.01;100673.63;5056896;28;20457;-67
2020/12/15 11:25:07;;;;;;;1.90;1.47;;;;;;;8.44;74.63;100671.69;5056458;28;20839;-67
2020/12/15 11:27:34;;;;;;;2.70;2.57;;;;;;;8.45;74.47;100684.88;5056856;28;20488;-67
2020/12/15 11:30:00;;;;;;;7.00;1.23;;;;;;;8.47;74.41;100682.72;5056506;28;20481;-67
2020/12/15 11:32:26;;;;;;;2.10;1.57;;;;;;;8.46;74.42;100681.13;5056001;28;20486;-67
2020/12/15 11:34:52;;;;;;;1.93;0.93;;;;;;;8.46;74.31;100681.13;5055601;28;20461;-67